This is the latest recevied weather packets stored in our database for station/object DL9SEC-13. If no packets are shown the sender has not sent any weather packets the latest 1 day(s).
| Time | Temp. | Humidity | Pressure | Rain* | Wind** | Luminosity | Snow |
|---|---|---|---|---|---|---|---|
| 1836274582 | 14.44° C | 86% | 1024.1 hPa | 0 mm | 1.34 m/s, 135° | - | - |
| 1778017202 | 12.78° C | 90% | 1011.8 hPa | 0 mm | 1.34 m/s, 90° | - | - |
| 1778016302 | 12.78° C | 89% | 1011.8 hPa | 0 mm | 0 m/s | - | - |
| 1778015403 | 12.78° C | 90% | 1011.9 hPa | 0 mm | 0.89 m/s, 90° | - | - |
| 1778014503 | 12.78° C | 92% | 1011.8 hPa | 0 mm | 0.45 m/s, 90° | - | - |
| 1778013602 | 12.78° C | 93% | 1011.8 hPa | 0 mm | 0.89 m/s, 68° | - | - |
| 1778012703 | 13.33° C | 92% | 1011.4 hPa | 0 mm | 0.89 m/s, 112° | - | - |
| 1778011803 | 13.33° C | 94% | 1011.4 hPa | 0 mm | 1.34 m/s, 90° | - | - |
| 1778010903 | 13.33° C | 94% | 1011.2 hPa | 0 mm | 0.89 m/s, 90° | - | - |
| 1778010003 | 13.33° C | 94% | 1011.1 hPa | 0 mm | 0.45 m/s, 90° | - | - |
| 1778009103 | 13.33° C | 94% | 1011.1 hPa | 0 mm | 0.89 m/s, 112° | - | - |
| 1778008203 | 13.33° C | 94% | 1010.9 hPa | 0.76 mm | 0 m/s | - | - |
| 1778007303 | 13.89° C | 93% | 1010.9 hPa | 0.76 mm | 0 m/s | - | - |
| 1778006403 | 13.89° C | 93% | 1011.1 hPa | 0.76 mm | 0 m/s | - | - |
| 1778005503 | 13.89° C | 91% | 1011 hPa | 0.76 mm | 0 m/s | - | - |
| 1778004603 | 14.44° C | 89% | 1011 hPa | 0 mm | 0 m/s | - | - |
| 1778003702 | 15° C | 86% | 1010.9 hPa | 0 mm | 0.45 m/s, 292° | - | - |
| 1778002804 | 15° C | 86% | 1010.7 hPa | 0 mm | 0 m/s | - | - |
| 1778001903 | 16.11° C | 80% | 1010.7 hPa | 0 mm | 0.45 m/s, 292° | - | - |
| 1778001003 | 18.33° C | 78% | 1010.5 hPa | 0 mm | 0 m/s | - | - |
| 1778000103 | 18.33° C | 69% | 1010.5 hPa | 0 mm | 0.89 m/s, 292° | - | - |
| 1777999203 | 16.67° C | 76% | 1010.6 hPa | 0 mm | 0 m/s | - | - |
| 1777998303 | 16.11° C | 80% | 1010.5 hPa | 0 mm | 0.45 m/s, 292° | - | - |
| 1777997403 | 16.11° C | 80% | 1010.6 hPa | 0 mm | 1.34 m/s, 315° | - | - |
| 1777996503 | 16.11° C | 81% | 1010.6 hPa | 0 mm | 0 m/s | - | - |
* Rain latest hour (hover to see other rain measurements)
** Current wind speed in m/s (hover to see current wind gust speed)